Buckingham, Illinois
Current Conditions -  °F | °C
As of 2:15 AM on Saturday 25 Oct 2014 (Local Time) from KIKK Reporting Station
Overcast Overcast  
Wind Chill: 57°   Ceiling: 3100
Heat Index: 57°   Visibility: 10mi
Dew Point: 53°   Wind: 5mph
Humidity: 87%   Direction: 250°WSW
Pressure: 29.93"   Gusts: NA
Location:  41.05°N, 88.18°W
Report Text: KIKK 250715Z AUTO 25004KT 10SM OVC031 14/12 A2993 RMK AO2 T01370116
Loading
Personal Weather Stations






























Interactive Weather Map
Tropical Storm Tracking
New forecast layout! Learn more

10-Day Weather Forecast

Advertisements
Track Severe Weather on mobile